createdAt,value
2023-02-13T00:00:22.844Z,45.07
2023-02-13T00:02:53.351Z,45.00
2023-02-13T00:05:23.555Z,42.98
2023-02-13T00:07:53.613Z,43.92
2023-02-13T00:10:23.619Z,46.93
2023-02-13T00:12:53.453Z,42.57
2023-02-13T00:15:22.990Z,41.98
2023-02-13T00:17:53.094Z,45.63
2023-02-13T00:20:22.631Z,41.85
2023-02-13T00:22:52.779Z,46.50
2023-02-13T00:25:22.281Z,43.35
2023-02-13T00:27:55.586Z,40.65
2023-02-13T00:30:25.324Z,48.00
2023-02-13T00:32:55.438Z,46.58
2023-02-13T00:35:26.117Z,44.63
2023-02-13T00:37:56.234Z,41.80
2023-02-13T00:42:55.310Z,45.30
2023-02-13T00:45:25.413Z,42.70
2023-02-13T00:47:55.513Z,50.35
2023-02-13T00:50:25.342Z,41.80
2023-02-13T00:52:55.424Z,41.55
2023-02-13T00:55:25.186Z,40.65
2023-02-13T00:57:54.942Z,42.07
2023-02-13T01:00:25.086Z,41.20
2023-02-13T01:02:54.928Z,41.70
2023-02-13T01:05:25.010Z,44.15
2023-02-13T01:07:54.863Z,44.07
2023-02-13T01:10:24.502Z,43.20
2023-02-13T01:12:54.915Z,41.90
2023-02-13T01:15:25.155Z,42.58
2023-02-13T01:17:57.535Z,41.83
2023-02-13T01:20:29.532Z,44.00
2023-02-13T01:22:59.784Z,43.87
2023-02-13T01:25:29.820Z,42.90
2023-02-13T01:28:00.627Z,45.05
2023-02-13T01:30:30.431Z,38.40
2023-02-13T01:33:00.516Z,42.10
2023-02-13T01:35:30.286Z,42.20
2023-02-13T01:38:00.347Z,43.75
2023-02-13T01:40:29.998Z,42.13
2023-02-13T01:42:59.829Z,43.23
2023-02-13T01:45:34.682Z,39.57
2023-02-13T01:48:07.830Z,43.17
2023-02-13T01:50:40.679Z,40.05
2023-02-13T01:53:22.661Z,42.48
2023-02-13T01:55:59.845Z,39.70
2023-02-13T01:58:32.452Z,44.43
2023-02-13T02:01:03.165Z,46.75
2023-02-13T02:03:36.254Z,47.00
2023-02-13T02:06:10.767Z,49.10
2023-02-13T02:08:40.858Z,48.23
2023-02-13T02:11:16.442Z,45.60
2023-02-13T02:13:47.354Z,43.53
2023-02-13T02:16:18.890Z,46.30
2023-02-13T02:18:50.069Z,46.33
2023-02-13T02:21:31.483Z,42.60
2023-02-13T02:24:22.373Z,39.83
2023-02-13T02:27:21.945Z,45.37
2023-02-13T02:30:20.663Z,44.08
2023-02-13T02:33:08.594Z,41.33
2023-02-13T02:35:41.465Z,45.20
2023-02-13T02:38:15.403Z,47.27
2023-02-13T02:40:51.108Z,45.07
2023-02-13T02:43:36.032Z,45.25
2023-02-13T02:46:19.526Z,48.20
2023-02-13T02:49:09.806Z,47.17
2023-02-13T02:51:46.146Z,46.50
2023-02-13T02:55:05.921Z,47.80
2023-02-13T02:57:57.985Z,45.13
2023-02-13T03:00:47.881Z,48.78
2023-02-13T03:03:41.958Z,44.20
2023-02-13T03:06:20.229Z,45.13
2023-02-13T03:09:13.730Z,47.33
2023-02-13T03:12:03.603Z,50.50
2023-02-13T03:14:33.916Z,47.80
2023-02-13T03:17:23.609Z,45.73
2023-02-13T03:20:26.314Z,51.88
2023-02-13T03:23:05.366Z,46.77
2023-02-13T03:25:41.015Z,46.40
2023-02-13T03:28:43.679Z,47.83
2023-02-13T03:31:41.420Z,45.80
2023-02-13T03:34:17.197Z,48.42
2023-02-13T03:37:07.422Z,46.37
2023-02-13T03:39:49.378Z,49.90
2023-02-13T03:42:40.111Z,52.57
2023-02-13T03:45:35.494Z,46.13
2023-02-13T03:48:10.370Z,51.40
2023-02-13T03:50:43.500Z,55.17
2023-02-13T03:53:15.832Z,46.83
2023-02-13T03:56:05.654Z,47.47
2023-02-13T03:59:01.868Z,46.73
2023-02-13T04:01:35.032Z,50.63
2023-02-13T04:04:24.203Z,49.90
2023-02-13T04:07:02.935Z,49.55
2023-02-13T04:09:35.236Z,46.05
2023-02-13T04:12:17.124Z,51.73
2023-02-13T04:14:53.123Z,44.55
2023-02-13T04:17:28.240Z,50.93
2023-02-13T04:19:58.426Z,53.10
2023-02-13T04:22:27.951Z,52.85
2023-02-13T04:24:58.000Z,47.30
2023-02-13T04:27:29.706Z,48.03
2023-02-13T04:29:59.760Z,56.88
2023-02-13T04:32:29.563Z,51.50
2023-02-13T04:34:59.396Z,48.93
2023-02-13T04:37:29.163Z,47.20
2023-02-13T04:39:59.275Z,53.95
2023-02-13T04:42:31.536Z,52.40
2023-02-13T04:45:02.650Z,46.23
2023-02-13T04:47:32.426Z,48.80
2023-02-13T04:50:02.197Z,49.40
2023-02-13T04:52:31.688Z,42.73
2023-02-13T04:55:01.457Z,44.63
2023-02-13T04:57:31.501Z,43.77
2023-02-13T05:00:01.236Z,54.73
2023-02-13T05:02:31.836Z,46.92
2023-02-13T05:05:01.599Z,46.67
2023-02-13T05:07:31.432Z,52.03
2023-02-13T05:10:01.229Z,47.00
2023-02-13T05:12:31.123Z,45.65
2023-02-13T05:15:01.012Z,50.60
2023-02-13T05:17:31.171Z,49.40
2023-02-13T05:20:01.105Z,48.13
2023-02-13T05:22:48.455Z,50.73
2023-02-13T05:25:18.242Z,41.33
2023-02-13T05:27:48.014Z,48.63
2023-02-13T05:30:20.223Z,50.36
2023-02-13T05:32:51.795Z,46.47
2023-02-13T05:35:25.609Z,43.80
2023-02-13T05:37:55.436Z,52.07
2023-02-13T05:40:28.255Z,48.55
2023-02-13T05:42:58.089Z,44.20
2023-02-13T05:45:27.854Z,45.07
2023-02-13T05:47:57.921Z,46.30
2023-02-13T05:50:27.480Z,42.93
2023-02-13T05:52:57.739Z,42.57
2023-02-13T05:55:27.506Z,44.00
2023-02-13T05:57:58.460Z,43.83
2023-02-13T06:00:28.412Z,41.37
2023-02-13T06:02:58.232Z,45.93
2023-02-13T06:05:28.134Z,43.37
2023-02-13T06:07:57.871Z,41.13
2023-02-13T06:10:27.545Z,45.37
2023-02-13T06:12:57.296Z,45.43
2023-02-13T06:15:27.172Z,42.47
2023-02-13T06:17:57.348Z,42.80
2023-02-13T06:20:26.816Z,44.03
2023-02-13T06:22:56.670Z,44.63
2023-02-13T06:25:26.751Z,47.20
2023-02-13T06:27:56.675Z,44.70
2023-02-13T06:30:26.231Z,42.97
2023-02-13T06:32:56.123Z,41.50
2023-02-13T06:35:25.981Z,43.40
2023-02-13T06:37:55.839Z,46.07
2023-02-13T06:40:25.667Z,44.47
2023-02-13T06:42:55.430Z,43.33
2023-02-13T06:45:25.326Z,41.13
2023-02-13T06:47:55.130Z,46.43
2023-02-13T06:50:24.987Z,41.68
2023-02-13T06:52:55.057Z,43.52
2023-02-13T06:55:24.816Z,45.10
2023-02-13T06:57:54.932Z,45.40
2023-02-13T07:00:26.199Z,45.47
2023-02-13T07:02:56.289Z,45.88
2023-02-13T07:05:26.244Z,44.93
2023-02-13T07:07:56.086Z,45.17
2023-02-13T07:10:25.991Z,44.67
2023-02-13T07:13:05.433Z,42.97
2023-02-13T07:15:27.244Z,41.37
2023-02-13T07:17:58.280Z,46.63
2023-02-13T07:20:28.727Z,50.12
2023-02-13T07:23:04.715Z,50.67
2023-02-13T07:25:35.224Z,43.50
2023-02-13T07:28:07.037Z,42.27
2023-02-13T07:30:37.201Z,47.87
2023-02-13T07:33:07.143Z,45.57
2023-02-13T07:35:37.639Z,46.93
2023-02-13T07:38:10.040Z,42.18
2023-02-13T07:40:39.575Z,41.68
2023-02-13T07:43:09.495Z,49.73
2023-02-13T07:45:39.329Z,53.23
2023-02-13T07:48:08.971Z,43.60
2023-02-13T07:50:38.718Z,51.73
2023-02-13T07:53:10.265Z,47.98
2023-02-13T07:55:39.922Z,47.95
2023-02-13T07:58:09.563Z,47.20
2023-02-13T08:00:39.472Z,49.83
2023-02-13T08:03:10.463Z,50.37
2023-02-13T08:05:41.056Z,48.13
2023-02-13T08:08:10.620Z,45.00
2023-02-13T08:10:59.291Z,47.90
2023-02-13T08:13:29.505Z,44.50
2023-02-13T08:15:59.806Z,45.40
2023-02-13T08:18:29.400Z,44.85
2023-02-13T08:20:59.116Z,43.10
2023-02-13T08:23:29.089Z,42.47
2023-02-13T08:26:01.886Z,51.43
2023-02-13T08:28:31.943Z,47.77
2023-02-13T08:31:01.922Z,41.50
2023-02-13T08:33:32.039Z,45.67
2023-02-13T08:36:04.692Z,42.15
2023-02-13T08:38:34.714Z,43.43
2023-02-13T08:41:04.679Z,43.20
2023-02-13T08:43:34.580Z,45.13
2023-02-13T08:46:06.645Z,39.23
2023-02-13T08:48:36.565Z,44.90
2023-02-13T08:51:11.939Z,43.77
2023-02-13T08:53:42.813Z,43.80
2023-02-13T08:56:13.256Z,38.67
2023-02-13T08:58:43.073Z,38.63
2023-02-13T09:01:13.201Z,37.37
2023-02-13T09:03:42.717Z,42.40
2023-02-13T09:06:12.858Z,37.83
2023-02-13T09:08:44.346Z,40.97
2023-02-13T09:11:14.523Z,38.10
2023-02-13T09:13:44.414Z,39.03
2023-02-13T09:16:15.648Z,34.86
2023-02-13T09:18:47.313Z,35.00
2023-02-13T09:21:17.956Z,33.90
2023-02-13T09:23:48.026Z,32.38
2023-02-13T09:26:19.776Z,33.43
2023-02-13T09:28:50.250Z,33.23
2023-02-13T09:31:24.155Z,34.90
2023-02-13T09:33:53.807Z,27.70
2023-02-13T09:36:24.974Z,36.00
2023-02-13T09:38:57.378Z,32.17
2023-02-13T09:41:39.768Z,29.57
2023-02-13T09:44:35.796Z,30.08
2023-02-13T09:47:35.579Z,29.20
2023-02-13T09:50:22.343Z,29.10
2023-02-13T09:55:25.159Z,32.95
2023-02-13T09:58:16.364Z,33.00
2023-02-13T10:00:50.899Z,29.27
2023-02-13T10:03:27.149Z,26.83
2023-02-13T10:08:41.983Z,29.60
2023-02-13T10:11:30.884Z,31.80
2023-02-13T10:14:15.252Z,30.83
2023-02-13T10:16:53.737Z,27.60
2023-02-13T10:19:38.551Z,27.93
2023-02-13T10:22:19.095Z,31.03
2023-02-13T10:24:57.754Z,32.03
2023-02-13T10:27:33.403Z,29.27
2023-02-13T10:30:06.826Z,30.95
2023-02-13T10:32:42.819Z,33.53
2023-02-13T10:35:17.953Z,32.48
2023-02-13T10:37:51.222Z,29.00
2023-02-13T10:40:21.500Z,31.20
2023-02-13T10:43:02.890Z,30.57
2023-02-13T10:45:58.298Z,32.67
2023-02-13T10:48:39.812Z,29.27
2023-02-13T10:51:44.151Z,25.97
2023-02-13T10:54:23.504Z,28.73
2023-02-13T10:57:05.028Z,31.77
2023-02-13T10:59:43.703Z,28.23
2023-02-13T11:02:25.674Z,31.82
2023-02-13T11:05:04.406Z,26.87
2023-02-13T11:07:37.561Z,27.13
2023-02-13T11:12:50.109Z,34.38
2023-02-13T11:15:31.624Z,27.85
2023-02-13T11:18:18.338Z,29.40
2023-02-13T11:20:49.339Z,31.30
2023-02-13T11:23:31.359Z,27.52
2023-02-13T11:26:04.477Z,25.93
2023-02-13T11:28:37.370Z,28.07
2023-02-13T11:31:15.976Z,27.87
2023-02-13T11:33:45.881Z,32.10
2023-02-13T11:36:33.446Z,25.62
2023-02-13T11:39:06.933Z,24.95
2023-02-13T11:41:44.877Z,24.70
2023-02-13T11:44:26.422Z,23.60
2023-02-13T11:47:01.386Z,26.23
2023-02-13T11:49:33.989Z,26.67
2023-02-13T11:52:08.567Z,27.13
2023-02-13T11:54:41.334Z,28.00
2023-02-13T11:57:34.113Z,24.40
2023-02-13T12:00:24.824Z,23.47
2023-02-13T12:02:54.746Z,22.40
2023-02-13T12:05:27.831Z,21.75
2023-02-13T12:08:00.916Z,30.97
2023-02-13T12:10:33.466Z,23.87
2023-02-13T12:13:23.858Z,23.15
2023-02-13T12:15:57.200Z,22.53
2023-02-13T12:18:32.331Z,24.50
2023-02-13T12:21:13.914Z,22.37
2023-02-13T12:24:02.893Z,22.73
2023-02-13T12:26:47.140Z,22.00
2023-02-13T12:29:35.113Z,23.90
2023-02-13T12:32:14.980Z,25.70
2023-02-13T12:35:11.454Z,22.33
2023-02-13T12:37:52.840Z,22.07
2023-02-13T12:40:37.743Z,22.84
2023-02-13T12:43:40.841Z,22.95
2023-02-13T12:46:38.150Z,22.48
2023-02-13T12:49:27.807Z,22.57
2023-02-13T12:52:00.950Z,24.80
2023-02-13T12:54:42.636Z,23.23
2023-02-13T12:57:15.805Z,23.50
2023-02-13T12:59:57.651Z,19.95
2023-02-13T13:02:42.656Z,23.87
2023-02-13T13:05:18.049Z,27.15
2023-02-13T13:07:53.723Z,27.27
2023-02-13T13:10:29.197Z,19.40
2023-02-13T13:13:34.414Z,21.80
2023-02-13T13:16:09.722Z,24.06
2023-02-13T13:18:54.980Z,22.48
2023-02-13T13:21:33.444Z,22.50
2023-02-13T13:24:18.776Z,23.07
2023-02-13T13:26:51.981Z,21.77
2023-02-13T13:29:27.475Z,22.87
2023-02-13T13:32:00.067Z,22.10
2023-02-13T13:34:32.379Z,20.57
2023-02-13T13:37:09.399Z,25.77
2023-02-13T13:40:01.183Z,22.50
2023-02-13T13:42:37.234Z,20.15
2023-02-13T13:47:45.864Z,22.67
2023-02-13T13:50:31.023Z,21.40
2023-02-13T13:53:12.601Z,20.37
2023-02-13T13:55:55.964Z,20.27
2023-02-13T13:58:37.822Z,23.17
2023-02-13T14:01:19.313Z,20.90
2023-02-13T14:03:52.183Z,20.30
2023-02-13T14:06:24.793Z,21.17
2023-02-13T14:08:58.040Z,23.43
2023-02-13T14:11:36.456Z,25.90
2023-02-13T14:17:20.027Z,25.97
2023-02-13T14:19:53.084Z,20.50
2023-02-13T14:22:34.211Z,21.60
2023-02-13T14:25:06.952Z,23.93
2023-02-13T14:27:39.972Z,22.33
2023-02-13T14:30:19.123Z,21.02
2023-02-13T14:32:49.058Z,20.07
2023-02-13T14:35:30.206Z,20.65
2023-02-13T14:38:02.938Z,21.93
2023-02-13T14:40:49.835Z,25.47
2023-02-13T14:43:38.034Z,21.30
2023-02-13T14:46:28.623Z,19.50
2023-02-13T14:49:19.293Z,19.40
2023-02-13T14:52:01.079Z,20.83
2023-02-13T14:54:39.986Z,21.13
2023-02-13T14:57:18.827Z,20.83
2023-02-13T14:59:54.462Z,24.07
2023-02-13T15:02:26.795Z,19.05
2023-02-13T15:05:11.267Z,20.85
2023-02-13T15:07:44.318Z,21.17
2023-02-13T15:10:37.488Z,20.37
2023-02-13T15:13:08.914Z,19.03
2023-02-13T15:15:39.201Z,22.13
2023-02-13T15:18:14.413Z,18.33
2023-02-13T15:20:45.074Z,20.30
2023-02-13T15:23:24.058Z,17.77
2023-02-13T15:26:07.949Z,19.67
2023-02-13T15:28:37.961Z,20.80
2023-02-13T15:31:10.611Z,17.62
2023-02-13T15:33:52.134Z,20.03
2023-02-13T15:36:26.146Z,19.10
2023-02-13T15:39:06.210Z,16.20
2023-02-13T15:41:44.706Z,19.10
2023-02-13T15:44:20.078Z,18.83
2023-02-13T15:46:54.686Z,19.70
2023-02-13T15:49:27.594Z,21.30
2023-02-13T15:52:08.266Z,22.30
2023-02-13T15:54:38.107Z,19.97
2023-02-13T15:57:09.989Z,19.70
2023-02-13T15:59:41.335Z,24.10
2023-02-13T16:02:16.902Z,18.30
2023-02-13T16:04:48.009Z,26.37
2023-02-13T16:07:17.837Z,20.80
2023-02-13T16:09:47.554Z,23.52
2023-02-13T16:12:23.155Z,21.53
2023-02-13T16:15:02.205Z,19.07
2023-02-13T16:17:34.830Z,24.30
2023-02-13T16:20:25.353Z,23.67
2023-02-13T16:23:00.666Z,25.03
2023-02-13T16:25:33.573Z,23.40
2023-02-13T16:28:06.331Z,32.10
2023-02-13T16:30:42.125Z,42.67
2023-02-13T16:33:23.192Z,42.27
2023-02-13T16:35:59.017Z,24.67
2023-02-13T16:38:31.582Z,22.00
2023-02-13T16:41:04.706Z,23.07
2023-02-13T16:43:44.115Z,26.33
2023-02-13T16:46:34.338Z,22.55
2023-02-13T16:49:07.802Z,24.87
2023-02-13T16:54:38.189Z,27.02
2023-02-13T16:57:20.821Z,22.85
2023-02-13T16:59:56.546Z,22.97
2023-02-13T17:02:40.761Z,21.77
2023-02-13T17:05:13.830Z,23.84
2023-02-13T17:07:50.172Z,21.10
2023-02-13T17:10:33.671Z,29.70
2023-02-13T17:13:05.880Z,25.25
2023-02-13T17:15:36.028Z,22.35
2023-02-13T17:18:08.081Z,23.95
2023-02-13T17:20:40.529Z,21.73
2023-02-13T17:23:19.054Z,22.27
2023-02-13T17:25:49.737Z,21.83
2023-02-13T17:28:22.593Z,22.93
2023-02-13T17:30:56.429Z,21.90
2023-02-13T17:33:32.031Z,22.90
2023-02-13T17:36:02.484Z,24.97
2023-02-13T17:38:32.311Z,27.27
2023-02-13T17:41:04.924Z,26.30
2023-02-13T17:43:34.755Z,26.13
2023-02-13T17:46:06.232Z,24.00
2023-02-13T17:48:36.480Z,21.65
2023-02-13T17:51:06.791Z,26.62
2023-02-13T17:53:37.229Z,25.10
2023-02-13T17:56:08.451Z,23.90
2023-02-13T17:58:38.291Z,23.33
2023-02-13T18:01:09.868Z,26.70
2023-02-13T18:03:40.335Z,24.00
2023-02-13T18:06:15.916Z,22.43
2023-02-13T18:08:45.593Z,23.57
2023-02-13T18:11:15.404Z,26.70
2023-02-13T18:13:46.922Z,24.33
2023-02-13T18:16:16.840Z,23.93
2023-02-13T18:18:48.692Z,29.05
2023-02-13T18:21:18.609Z,32.20
2023-02-13T18:23:48.730Z,34.65
2023-02-13T18:26:18.546Z,27.05
2023-02-13T18:28:50.016Z,29.47
2023-02-13T18:31:20.749Z,29.33
2023-02-13T18:33:50.642Z,26.03
2023-02-13T18:36:20.146Z,27.73
2023-02-13T18:38:50.986Z,29.23
2023-02-13T18:41:21.777Z,26.50
2023-02-13T18:43:51.441Z,30.75
2023-02-13T18:46:21.134Z,25.40
2023-02-13T18:48:51.175Z,26.07
2023-02-13T18:51:20.658Z,28.47
2023-02-13T18:53:50.435Z,22.53
2023-02-13T18:56:24.844Z,23.85
2023-02-13T18:58:54.889Z,25.50
2023-02-13T19:01:25.270Z,26.03
2023-02-13T19:03:55.546Z,28.13
2023-02-13T19:06:28.644Z,26.95
2023-02-13T19:08:59.749Z,30.50
2023-02-13T19:11:30.476Z,26.80
2023-02-13T19:14:02.310Z,28.80
2023-02-13T19:16:33.956Z,27.10
2023-02-13T19:19:05.953Z,25.30
2023-02-13T19:21:38.412Z,22.77
2023-02-13T19:24:13.969Z,23.00
2023-02-13T19:26:44.653Z,25.87
2023-02-13T19:29:14.514Z,26.63
2023-02-13T19:31:44.704Z,27.33
2023-02-13T19:34:14.524Z,26.80
2023-02-13T19:36:44.172Z,26.00
2023-02-13T19:39:14.409Z,26.73
2023-02-13T19:41:44.562Z,30.97
2023-02-13T19:44:14.403Z,27.73
2023-02-13T19:46:44.402Z,31.60
2023-02-13T19:49:14.344Z,28.37
2023-02-13T19:51:45.763Z,30.23
2023-02-13T19:54:15.236Z,30.73
2023-02-13T19:56:45.086Z,27.60
2023-02-13T19:59:14.860Z,26.63
2023-02-13T20:01:45.734Z,28.87
2023-02-13T20:04:15.592Z,29.72
2023-02-13T20:06:45.888Z,25.65
2023-02-13T20:09:15.859Z,28.37
2023-02-13T20:11:45.640Z,34.25
2023-02-13T20:14:15.415Z,30.00
2023-02-13T20:16:46.503Z,32.10
2023-02-13T20:19:16.474Z,39.83
2023-02-13T20:21:46.275Z,33.13
2023-02-13T20:24:16.110Z,30.75
2023-02-13T20:26:45.872Z,35.27
2023-02-13T20:29:15.885Z,26.53
2023-02-13T20:31:46.215Z,30.88
2023-02-13T20:34:16.040Z,30.45
2023-02-13T20:36:45.835Z,31.67
2023-02-13T20:39:15.724Z,31.10
2023-02-13T20:41:47.147Z,29.53
2023-02-13T20:44:19.141Z,35.23
2023-02-13T20:46:50.950Z,46.27
2023-02-13T20:49:21.941Z,47.80
2023-02-13T20:51:51.760Z,44.70
2023-02-13T20:54:21.333Z,44.70
2023-02-13T20:56:51.127Z,38.53
2023-02-13T20:59:21.063Z,40.37
2023-02-13T21:01:50.853Z,39.23
2023-02-13T21:04:21.008Z,35.10
2023-02-13T21:06:50.856Z,31.93
2023-02-13T21:09:20.711Z,35.03
2023-02-13T21:11:50.702Z,37.30
2023-02-13T21:14:23.588Z,34.43
2023-02-13T21:16:53.512Z,35.57
2023-02-13T21:19:23.934Z,33.10
2023-02-13T21:21:53.820Z,35.33
2023-02-13T21:24:24.189Z,29.20
2023-02-13T21:26:54.405Z,29.93
2023-02-13T21:29:24.180Z,32.00
2023-02-13T21:31:53.999Z,36.87
2023-02-13T21:34:24.147Z,31.20
2023-02-13T21:36:54.130Z,32.27
2023-02-13T21:39:24.029Z,28.87
2023-02-13T21:41:53.782Z,30.33
2023-02-13T21:44:23.716Z,36.20
2023-02-13T21:46:53.734Z,29.80
2023-02-13T21:49:24.968Z,34.20
2023-02-13T21:51:54.624Z,33.20
2023-02-13T21:54:24.564Z,31.00
2023-02-13T21:56:54.400Z,33.40
2023-02-13T21:59:24.221Z,28.60
2023-02-13T22:01:54.708Z,32.60
2023-02-13T22:04:24.453Z,31.95
2023-02-13T22:06:54.815Z,32.53
2023-02-13T22:09:26.252Z,32.80
2023-02-13T22:11:56.076Z,26.87
2023-02-13T22:14:25.829Z,34.55
2023-02-13T22:16:55.729Z,36.13
2023-02-13T22:19:26.089Z,33.35
2023-02-13T22:21:55.973Z,34.77
2023-02-13T22:24:27.679Z,37.95
2023-02-13T22:26:57.496Z,44.20
2023-02-13T22:29:27.308Z,37.47
2023-02-13T22:31:57.214Z,33.53
2023-02-13T22:34:27.064Z,37.05
2023-02-13T22:36:58.387Z,34.13
2023-02-13T22:39:28.514Z,30.55
2023-02-13T22:41:58.287Z,34.33
2023-02-13T22:44:29.048Z,34.67
2023-02-13T22:46:58.948Z,32.57
2023-02-13T22:49:28.829Z,30.87
2023-02-13T22:51:58.589Z,32.87
2023-02-13T22:54:28.296Z,30.65
2023-02-13T22:56:58.094Z,34.20
2023-02-13T22:59:27.946Z,37.97
2023-02-13T23:01:57.792Z,34.83
2023-02-13T23:04:27.687Z,33.75
2023-02-13T23:06:57.523Z,38.07
2023-02-13T23:09:27.448Z,35.43
2023-02-13T23:12:14.733Z,33.40
2023-02-13T23:14:46.808Z,30.33
2023-02-13T23:17:34.031Z,30.60
2023-02-13T23:20:05.320Z,33.70
2023-02-13T23:22:35.930Z,30.87
2023-02-13T23:25:06.931Z,34.07
2023-02-13T23:27:37.384Z,35.07
2023-02-13T23:30:11.028Z,31.37
2023-02-13T23:32:41.247Z,33.53
2023-02-13T23:35:12.178Z,29.07
2023-02-13T23:37:42.621Z,31.33
2023-02-13T23:40:15.001Z,36.23
2023-02-13T23:42:44.900Z,30.57
2023-02-13T23:45:14.688Z,32.00
2023-02-13T23:47:44.857Z,33.85
2023-02-13T23:50:15.263Z,33.73
2023-02-13T23:52:45.091Z,33.00
2023-02-13T23:55:14.609Z,31.95
2023-02-13T23:57:44.375Z,32.77
